Dades meteomassalio
Diari Summary for Gener 8, 2018 Units:  Metric    English   Both
« Previous Day
Next Day »
Diari Semanal Mensual Anual Personalitzat
  Maxima: Minima: Mijana:
Temperatura: -17.8 °C -1.1 °C 2.1 °C
Rosada: -17.8 °C -2.1 °C 0.7 °C
Humitat: Humidity % 82 % 90 %
Velocitat del vent: 0 km/h 0 km/h 2.9 km/h
Racha vent: 0 km/h - -
Vent:- - NW
Pressio: 0 hPa 1011.7 hPa -
Pluja: 0.25 mm    
Historical Graphs
 
 
Tabular Data for Gener 8, 2018
Time Temperature Dew Point Pressure Wind Wind Speed Wind Gust Humidity Rainfall Rate (Hourly) solar Conditions
-17.8 °C -17.8 °C 0 hPa Calm     Humidity % 0 mm SolarRadiationWatts/m^2 W/m2 Conditions
00:00 0 °C -1 °C 1011.7 hPa Calm     93 % 0 mm 0.0 W/m2 CLR
00:01 0 °C -1 °C 1011.7 hPa Calm     93 % 0 mm 0.0 W/m2 RA
00:06 0 °C -1 °C 1011.7 hPa Calm     93 % 0 mm 0.0 W/m2 CLR
00:11 0 °C -1 °C 1011.7 hPa Calm     93 % 0 mm 0.0 W/m2 CLR
00:15 0 °C -1 °C 1011.7 hPa Calm     93 % 0 mm 0.0 W/m2 CLR
00:20 0 °C -1 °C 1011.7 hPa Calm     93 % 0 mm 0.0 W/m2 CLR
00:23 0 °C -1 °C 1011.7 hPa Calm     93 % 0 mm 0.0 W/m2 CLR
00:28 0 °C -1 °C 1011.7 hPa Calm     93 % 0 mm 0.0 W/m2 CLR
00:29 0 °C -1 °C 1011.7 hPa Calm     93 % 0 mm 0.0 W/m2 CLR
00:35 0 °C -1 °C 1011.7 hPa Calm     93 % 0 mm 0.0 W/m2 CLR
00:40 0 °C -1 °C 1011.7 hPa Calm     93 % 0 mm 0.0 W/m2 CLR
00:44 0 °C -1 °C 1011.7 hPa Calm     93 % 0 mm 0.0 W/m2 CLR
00:49 0 °C -1 °C 1011.7 hPa Calm     93 % 0 mm 0.0 W/m2 CLR
00:53 0 °C -1 °C 1012.1 hPa Calm     93 % 0 mm 0.0 W/m2 CLR
00:58 0 °C -1 °C 1011.7 hPa Calm     93 % 0 mm 0.0 W/m2 CLR
01:04 0 °C -1 °C 1011.7 hPa Calm     93 % 0 mm 0.0 W/m2 CLR
01:09 0 °C -1 °C 1011.7 hPa Calm     93 % 0 mm 0.0 W/m2 CLR
01:14 0 °C -1 °C 1011.7 hPa Calm     93 % 0 mm 0.0 W/m2 CLR
01:19 0 °C -1 °C 1011.7 hPa Calm     93 % 0 mm 0.0 W/m2 CLR
01:21 0 °C -1 °C 1011.7 hPa Calm     93 % 0 mm 0.0 W/m2 CLR
01:22 0 °C -1 °C 1011.7 hPa Calm     93 % 0 mm 0.0 W/m2 CLR
01:27 0 °C -1 °C 1011.7 hPa Calm     93 % 0 mm 0.0 W/m2 CLR
01:32 0 °C -1 °C 1012.1 hPa Calm     93 % 0 mm 0.0 W/m2 CLR
01:37 0 °C -1 °C 1012.1 hPa Calm     93 % 0 mm 0.0 W/m2 CLR
01:38 0 °C -1 °C 1012.1 hPa Calm     93 % 0 mm 0.0 W/m2 CLR
01:43 0 °C -1 °C 1012.1 hPa Calm     93 % 0 mm 0.0 W/m2 CLR
01:48 0 °C -1 °C 1012.1 hPa Calm     93 % 0 mm 0.0 W/m2 CLR
01:54 0 °C -1 °C 1012.4 hPa Calm     93 % 0 mm 0.0 W/m2 CLR
01:59 0 °C -1 °C 1012.4 hPa Calm     93 % 0 mm 0.0 W/m2 CLR
02:04 0 °C -1 °C 1012.4 hPa Calm     93 % 0 mm 0.0 W/m2 CLR
02:08 0 °C -1 °C 1012.4 hPa Calm     93 % 0 mm 0.0 W/m2 CLR
02:13 0 °C -1 °C 1012.4 hPa Calm     93 % 0 mm 0.0 W/m2 CLR
02:18 0 °C -0.8 °C 1012.8 hPa Calm     94 % 0 mm 0.0 W/m2 CLR
02:23 0 °C -0.8 °C 1012.8 hPa Calm     94 % 0 mm 0.0 W/m2 CLR
02:29 0 °C -0.8 °C 1012.8 hPa Calm     94 % 0 mm 0.0 W/m2 CLR
02:34 0 °C -1 °C 1012.8 hPa Calm     93 % 0 mm 0.0 W/m2 CLR
02:39 0 °C -1 °C 1012.8 hPa Calm     93 % 0 mm 0.0 W/m2 CLR
02:44 -0.6 °C -1.6 °C 1012.8 hPa Calm     93 % 0 mm 0.0 W/m2 CLR
02:49 0 °C -1 °C 1012.8 hPa Calm     93 % 0 mm 0.0 W/m2 CLR
02:53 -0.6 °C -1.4 °C 1013.1 hPa Calm     94 % 0 mm 0.0 W/m2 CLR
02:58 -0.6 °C -1.4 °C 1013.1 hPa Calm     94 % 0 mm 0.0 W/m2 CLR
03:03 -0.6 °C -1.4 °C 1013.1 hPa Calm     94 % 0 mm 0.0 W/m2 CLR
03:08 -0.6 °C -1.6 °C 1013.1 hPa Calm     93 % 0 mm 0.0 W/m2 CLR
03:13 -0.6 °C -1.4 °C 1013.1 hPa Calm     94 % 0 mm 0.0 W/m2 CLR
03:18 -0.6 °C -1.6 °C 1013.1 hPa Calm     93 % 0 mm 0.0 W/m2 CLR
03:22 -0.6 °C -1.6 °C 1013.1 hPa Calm     93 % 0 mm 0.0 W/m2 CLR
03:25 -0.6 °C -1.6 °C 1013.1 hPa Calm     93 % 0 mm 0.0 W/m2 CLR
03:30 -0.6 °C -1.6 °C 1013.1 hPa Calm     93 % 0 mm 0.0 W/m2 CLR
03:35 -0.6 °C -1.6 °C 1013.1 hPa Calm     93 % 0 mm 0.0 W/m2 CLR
03:40 -0.6 °C -1.4 °C 1013.1 hPa Calm     94 % 0 mm 0.0 W/m2 CLR
03:45 -0.6 °C -1.6 °C 1013.1 hPa Calm     93 % 0 mm 0.0 W/m2 CLR
03:50 -0.6 °C -1.6 °C 1013.1 hPa Calm     93 % 0 mm 0.0 W/m2 CLR
03:56 -0.6 °C -1.6 °C 1013.1 hPa Calm     93 % 0 mm 0.0 W/m2 CLR
04:01 -0.6 °C -1.6 °C 1013.4 hPa Calm     93 % 0 mm 0.0 W/m2 CLR
04:03 -0.6 °C -1.6 °C 1013.4 hPa Calm     93 % 0 mm 0.0 W/m2 CLR
04:09 -0.6 °C -1.6 °C 1013.1 hPa Calm     93 % 0 mm 0.0 W/m2 CLR
04:14 -0.6 °C -1.6 °C 1013.1 hPa Calm     93 % 0 mm 0.0 W/m2 CLR
04:19 -0.6 °C -1.6 °C 1013.1 hPa Calm     93 % 0 mm 0.0 W/m2 CLR
04:26 -0.6 °C -1.6 °C 1013.4 hPa Calm     93 % 0 mm 0.0 W/m2 CLR
04:41 -0.6 °C -1.6 °C 1013.4 hPa Calm     93 % 0 mm 0.0 W/m2 CLR
04:59 0 °C -1 °C 1013.1 hPa Calm     93 % 0 mm 0.0 W/m2 CLR
05:12 0 °C -0.8 °C 1013.4 hPa Calm     94 % 0 mm 0.0 W/m2 CLR
05:30 0 °C -0.8 °C 1013.4 hPa Calm     94 % 0 mm 0.0 W/m2 CLR
05:37 0 °C -0.8 °C 1013.4 hPa Calm     94 % 0 mm 0.0 W/m2 CLR
05:51 0.6 °C -0.3 °C 1013.8 hPa Calm     94 % 0 mm 0.0 W/m2 CLR
06:19 0.6 °C -0.3 °C 1013.8 hPa Calm     94 % 0 mm 0.0 W/m2 CLR
06:29 1.1 °C 0.3 °C 1013.8 hPa Calm     94 % 0 mm 0.0 W/m2 CLR
06:37 1.1 °C 0.3 °C 1013.8 hPa Calm     94 % 0 mm 0.0 W/m2 CLR
06:46 1.1 °C 0.3 °C 1014.1 hPa Calm     94 % 0 mm 0.0 W/m2 CLR
07:14 1.1 °C 0.3 °C 1014.1 hPa Calm     94 % 0 mm 0.0 W/m2 CLR
07:26 1.7 °C 0.8 °C 1014.1 hPa Calm     94 % 0 mm 0.0 W/m2 CLR
07:58 1.7 °C 0.8 °C 1014.4 hPa Calm     94 % 0 mm 0.0 W/m2 CLR
09:19 2.2 °C 1.3 °C 1015.1 hPa Calm     94 % 0 mm 25.0 W/m2 BKN
09:41 2.8 °C 1.9 °C 1015.5 hPa Calm     94 % 0 mm 33.0 W/m2 BKN
09:47 2.8 °C 1.9 °C 1015.5 hPa Calm     94 % 0 mm 35.0 W/m2 BKN
09:53 2.8 °C 1.9 °C 1015.5 hPa Calm     94 % 0 mm 39.0 W/m2 BKN
10:03 2.8 °C 1.9 °C 1015.8 hPa Calm     94 % 0 mm 51.0 W/m2 BKN
10:13 3.3 °C 2.4 °C 1015.8 hPa Calm     94 % 0 mm 62.0 W/m2 SCT
10:18 3.3 °C 2.4 °C 1015.8 hPa Calm     94 % 0 mm 65.0 W/m2 SCT
10:23 3.3 °C 2.4 °C 1015.8 hPa Calm     94 % 0 mm 62.0 W/m2 SCT
10:24 3.3 °C 2.4 °C 1015.8 hPa Calm     94 % 0 mm 62.0 W/m2 SCT
10:29 3.3 °C 2.4 °C 1015.8 hPa Calm     94 % 0 mm 60.0 W/m2 SCT
10:30 3.3 °C 2.4 °C 1015.8 hPa Calm     94 % 0 mm 60.0 W/m2 SCT
10:35 3.3 °C 2.4 °C 1016.1 hPa Calm     94 % 0 mm 63.0 W/m2 SCT
10:36 3.3 °C 2.4 °C 1016.1 hPa Calm     94 % 0 mm 62.0 W/m2 SCT
10:38 3.3 °C 2.4 °C 1016.1 hPa Calm     94 % 0 mm 60.0 W/m2 SCT
10:43 3.3 °C 2.4 °C 1016.1 hPa Calm     94 % 0 mm 69.0 W/m2 SCT
10:44 3.3 °C 2.4 °C 1016.1 hPa Calm     94 % 0 mm 72.0 W/m2 SCT
10:49 3.9 °C 3 °C 1016.1 hPa NNW 11.1 km/h 11.1 km/h 94 % 0 mm 74.0 W/m2 FEW
10:52 3.9 °C 3 °C 1016.1 hPa NNW 9.3 km/h 9.3 km/h 94 % 0 mm 63.0 W/m2 FEW
10:57 3.9 °C 3 °C 1016.1 hPa NW 9.3 km/h 9.3 km/h 94 % 0 mm 67.0 W/m2 FEW
10:58 3.9 °C 3 °C 1016.1 hPa NNW 7.4 km/h 7.4 km/h 94 % 0 mm 69.0 W/m2 FEW
11:03 4.4 °C 3.6 °C 1016.1 hPa Calm     94 % 0 mm 76.0 W/m2 FEW
11:08 4.4 °C 3.6 °C 1016.1 hPa Calm     94 % 0 mm 70.0 W/m2 FEW
11:13 4.4 °C 3.4 °C 1016.5 hPa Calm     93 % 0 mm 63.0 W/m2 FEW
11:17 4.4 °C 3.4 °C 1016.5 hPa Calm     93 % 0 mm 62.0 W/m2 FEW
11:20 4.4 °C 3.4 °C 1016.1 hPa NW 9.3 km/h 9.3 km/h 93 % 0 mm 67.0 W/m2 SCT
11:25 4.4 °C 3.4 °C 1016.5 hPa Calm     93 % 0 mm 86.0 W/m2 FEW
11:31 4.4 °C 3.4 °C 1016.5 hPa Calm     93 % 0 mm 100.0 W/m2 FEW
11:36 4.4 °C 3.4 °C 1016.1 hPa Calm     93 % 0 mm 121.0 W/m2 CLR
11:41 4.4 °C 3.4 °C 1016.1 hPa Calm     93 % 0 mm 142.0 W/m2 CLR
11:46 5 °C 3.9 °C 1016.1 hPa Calm     93 % 0 mm 114.0 W/m2 CLR
11:52 5 °C 3.8 °C 1015.8 hPa Calm     92 % 0 mm 88.0 W/m2 CLR
11:54 5 °C 3.8 °C 1016.1 hPa Calm     92 % 0 mm 97.0 W/m2 CLR
12:00 4.4 °C 3.3 °C 1015.8 hPa Calm     92 % 0 mm 132.0 W/m2 CLR
12:05 5 °C 3.8 °C 1015.8 hPa Calm     92 % 0 mm 132.0 W/m2 CLR
12:11 5 °C 3.7 °C 1015.8 hPa NNW 5.6 km/h 5.6 km/h 91 % 0 mm 118.0 W/m2 CLR
12:17 5 °C 3.7 °C 1016.1 hPa NNW 1.9 km/h 1.9 km/h 91 % 0 mm 111.0 W/m2 CLR
12:22 5 °C 3.7 °C 1016.1 hPa Calm     91 % 0 mm 114.0 W/m2 CLR
12:27 5 °C 3.7 °C 1016.1 hPa Calm     91 % 0 mm 114.0 W/m2 CLR
12:34 5 °C 3.5 °C 1016.1 hPa Calm     90 % 0 mm 141.0 W/m2 CLR
12:39 5 °C 3.5 °C 1015.8 hPa Calm     90 % 0 mm 134.0 W/m2 CLR
12:45 5 °C 3.5 °C 1016.1 hPa Calm     90 % 0 mm 125.0 W/m2 CLR
12:50 5.6 °C 4.1 °C 1015.8 hPa Calm     90 % 0 mm 141.0 W/m2 CLR
12:52 5.6 °C 4.1 °C 1016.1 hPa Calm     90 % 0 mm 132.0 W/m2 CLR
12:57 5.6 °C 3.9 °C 1016.1 hPa NW 5.6 km/h 5.6 km/h 89 % 0 mm 149.0 W/m2 CLR
13:02 5 °C 3.3 °C 1015.8 hPa NW 3.7 km/h 3.7 km/h 89 % 0 mm 165.0 W/m2 CLR
13:04 5 °C 3.3 °C 1015.8 hPa NW 3.7 km/h 3.7 km/h 89 % 0 mm 167.0 W/m2 CLR
13:09 5.6 °C 3.9 °C 1015.8 hPa Calm     89 % 0 mm 165.0 W/m2 CLR
13:15 5.6 °C 3.9 °C 1015.8 hPa NW 5.6 km/h 5.6 km/h 89 % 0 mm 172.0 W/m2 CLR
13:21 5.6 °C 3.7 °C 1015.8 hPa NW 1.9 km/h 1.9 km/h 88 % 0 mm 183.0 W/m2 CLR
13:23 5.6 °C 3.7 °C 1015.8 hPa NNW 5.6 km/h 5.6 km/h 88 % 0 mm 179.0 W/m2 CLR
13:28 5.6 °C 3.9 °C 1015.5 hPa NNW 3.7 km/h   89 % 0 mm 195.0 W/m2 CLR
13:34 5.6 °C 3.7 °C 1015.5 hPa NNW 5.6 km/h 5.6 km/h 88 % 0 mm 206.0 W/m2 CLR
13:39 5.6 °C 3.9 °C 1015.5 hPa NNW 16.1 km/h 16.1 km/h 89 % 0 mm 211.0 W/m2 CLR
13:42 5.6 °C 3.7 °C 1015.5 hPa NNW 13 km/h 13 km/h 88 % 0 mm 230.0 W/m2 CLR
13:47 5.6 °C 3.7 °C 1015.5 hPa North 12.9 km/h 12.9 km/h 88 % 0 mm 257.0 W/m2 CLR
13:50 5.6 °C 3.7 °C 1015.5 hPa NNW 14.8 km/h   88 % 0 mm 278.0 W/m2 CLR
13:55 6.1 °C 4.1 °C 1015.5 hPa NNE 12.9 km/h 12.9 km/h 87 % 0 mm 237.0 W/m2 CLR
13:57 6.1 °C 4.3 °C 1015.5 hPa NNE 13 km/h 13 km/h 88 % 0 mm 227.0 W/m2 CLR
14:02 6.1 °C 4.1 °C 1015.5 hPa NNW 13 km/h 13 km/h 87 % 0 mm 220.0 W/m2 CLR
14:06 6.1 °C 4.3 °C 1015.5 hPa North 13 km/h 13 km/h 88 % 0 mm 185.0 W/m2 CLR
14:11 6.1 °C 4.3 °C 1015.5 hPa NNW 16.7 km/h 16.7 km/h 88 % 0 mm 223.0 W/m2 CLR
14:16 6.1 °C 4.1 °C 1015.5 hPa North 18.5 km/h 18.5 km/h 87 % 0 mm 195.0 W/m2 CLR
14:22 6.1 °C 4.1 °C 1015.5 hPa North 14.8 km/h 14.8 km/h 87 % 0 mm 243.0 W/m2 CLR
14:30 6.1 °C 4.3 °C 1015.1 hPa NW 14.5 km/h 14.5 km/h 88 % 0 mm 199.0 W/m2 CLR
14:36 6.1 °C 4.3 °C 1015.1 hPa WNW 11.1 km/h 11.1 km/h 88 % 0 mm 302.0 W/m2 CLR
14:41 5.6 °C 3.7 °C 1015.1 hPa NNW 16.7 km/h 16.7 km/h 88 % 0 mm 262.0 W/m2 CLR
14:47 6.1 °C 4.3 °C 1015.1 hPa NW 13 km/h 13 km/h 88 % 0 mm 213.0 W/m2 CLR
14:49 6.1 °C 4.3 °C 1015.1 hPa NNW 16.7 km/h 16.7 km/h 88 % 0 mm 234.0 W/m2 CLR
14:50 6.1 °C 4.3 °C 1015.1 hPa NNW 16.7 km/h 16.7 km/h 88 % 0 mm 246.0 W/m2 CLR
14:58 6.1 °C 4.3 °C 1015.1 hPa NNW 11.1 km/h 11.1 km/h 88 % 0 mm 241.0 W/m2 CLR
14:59 6.1 °C 4.3 °C 1015.1 hPa NW 18.5 km/h 18.5 km/h 88 % 0 mm 243.0 W/m2 CLR
15:05 6.1 °C 4.3 °C 1015.1 hPa North 16.7 km/h 16.7 km/h 88 % 0 mm 258.0 W/m2 CLR
15:06 6.1 °C 4.3 °C 1015.1 hPa NNW 16.1 km/h 16.1 km/h 88 % 0 mm 316.0 W/m2 CLR
15:12 6.1 °C 4.3 °C 1015.1 hPa WNW 18.5 km/h 18.5 km/h 88 % 0 mm 272.0 W/m2 CLR
15:17 6.1 °C 4.3 °C 1015.1 hPa NNW 17.7 km/h 17.7 km/h 88 % 0.25 mm 209.0 W/m2 RA
15:23 6.1 °C 4.3 °C 1015.1 hPa North 16.7 km/h 16.7 km/h 88 % 0.25 mm 320.0 W/m2 CLR
15:26 6.1 °C 4.3 °C 1015.1 hPa NW 16.7 km/h 16.7 km/h 88 % 0.25 mm 313.0 W/m2 CLR
15:33 6.7 °C 4.7 °C 1015.1 hPa NNW 16.7 km/h 16.7 km/h 87 % 0.25 mm 276.0 W/m2 CLR
15:34 6.7 °C 4.7 °C 1015.1 hPa NW 16.7 km/h 16.7 km/h 87 % 0.25 mm 276.0 W/m2 CLR
15:39 6.7 °C 4.3 °C 1015.1 hPa NNW 18.5 km/h 18.5 km/h 85 % 0.25 mm 237.0 W/m2 CLR
15:44 6.7 °C 4.3 °C 1015.5 hPa North 16.1 km/h 16.1 km/h 85 % 0.25 mm 183.0 W/m2 CLR
15:50 6.7 °C 4.3 °C 1015.5 hPa NNW 18.5 km/h 18.5 km/h 85 % 0.25 mm 172.0 W/m2 CLR
15:57 6.7 °C 4.2 °C 1015.5 hPa NNW 16.7 km/h 16.7 km/h 84 % 0.25 mm 209.0 W/m2 CLR
16:03 6.7 °C 4.2 °C 1015.5 hPa NW 13 km/h 13 km/h 84 % 0.25 mm 213.0 W/m2 CLR
16:09 6.7 °C 4 °C 1015.5 hPa NNW 11.3 km/h 11.3 km/h 83 % 0.25 mm 169.0 W/m2 CLR
16:17 6.7 °C 4 °C 1015.8 hPa NNW 16.7 km/h 16.7 km/h 83 % 0 mm 156.0 W/m2 CLR
16:20 6.1 °C 3.4 °C 1015.8 hPa NW 13 km/h 13 km/h 83 % 0 mm 141.0 W/m2 CLR
16:25 6.1 °C 3.4 °C 1015.8 hPa NW 11.1 km/h 11.1 km/h 83 % 0 mm 155.0 W/m2 CLR
16:30 6.1 °C 3.4 °C 1015.8 hPa NW 9.7 km/h 9.7 km/h 83 % 0 mm 130.0 W/m2 CLR
16:36 6.1 °C 3.4 °C 1015.8 hPa NNW 9.3 km/h 9.3 km/h 83 % 0 mm 118.0 W/m2 CLR
16:41 6.1 °C 3.4 °C 1015.8 hPa Calm     83 % 0 mm 95.0 W/m2 CLR
16:45 6.1 °C 3.4 °C 1015.8 hPa WNW 9.3 km/h 9.3 km/h 83 % 0 mm 90.0 W/m2 CLR
16:51 6.1 °C 3.3 °C 1015.5 hPa Calm     82 % 0 mm 79.0 W/m2 FEW
16:56 6.1 °C 3.4 °C 1015.5 hPa Calm     83 % 0 mm 70.0 W/m2 FEW
17:00 6.1 °C 3.4 °C 1015.5 hPa Calm     83 % 0 mm 67.0 W/m2 FEW
17:04 6.1 °C 3.4 °C 1015.8 hPa Calm     83 % 0 mm 62.0 W/m2 SCT
17:09 6.1 °C 3.4 °C 1015.8 hPa Calm     83 % 0 mm 53.0 W/m2 SCT
17:19 5.6 °C 2.9 °C 1015.8 hPa Calm     83 % 0 mm 39.0 W/m2 BKN
17:25 5.6 °C 3.1 °C 1015.5 hPa Calm     84 % 0 mm 28.0 W/m2 BKN
17:30 5.6 °C 3.1 °C 1015.5 hPa WNW 3.7 km/h 3.7 km/h 84 % 0 mm 21.0 W/m2 BKN
17:33 5.6 °C 3.1 °C 1015.5 hPa West 3.7 km/h 3.7 km/h 84 % 0 mm 18.0 W/m2 BKN
17:38 5.6 °C 3.1 °C 1015.5 hPa West 5.6 km/h 5.6 km/h 84 % 0 mm 12.0 W/m2 BKN
17:40 5.6 °C 3.2 °C 1015.5 hPa WNW 6.4 km/h 6.4 km/h 85 % 0 mm 11.0 W/m2 BKN
17:42 5 °C 2.7 °C 1015.5 hPa West 5.6 km/h 5.6 km/h 85 % 0 mm 9.0 W/m2 BKN
17:45 5 °C 2.7 °C 1015.5 hPa Calm     85 % 0 mm 5.0 W/m2 BKN
17:46 5 °C 2.7 °C 1015.5 hPa Calm     85 % 0 mm 5.0 W/m2 BKN
17:51 4.4 °C 2.3 °C 1015.5 hPa Calm     86 % 0 mm 0.0 W/m2 OVC
17:56 4.4 °C 2.3 °C 1015.5 hPa Calm     86 % 0 mm 0.0 W/m2 OVC
18:01 3.9 °C 1.8 °C 1015.8 hPa Calm     86 % 0 mm 0.0 W/m2 CLR
18:06 3.3 °C 1.4 °C 1015.8 hPa Calm     87 % 0 mm 0.0 W/m2 CLR
18:11 3.3 °C 1.4 °C 1015.8 hPa Calm     87 % 0 mm 0.0 W/m2 CLR
18:15 2.8 °C 0.8 °C 1015.8 hPa WNW 3.2 km/h 3.2 km/h 87 % 0 mm 0.0 W/m2 CLR
18:20 2.8 °C 0.8 °C 1015.8 hPa WNW 5.6 km/h 5.6 km/h 87 % 0 mm 0.0 W/m2 CLR
18:25 2.2 °C 0.4 °C 1015.8 hPa WNW 6.4 km/h 6.4 km/h 88 % 0 mm 0.0 W/m2 CLR
18:30 2.2 °C 0.4 °C 1015.8 hPa WNW 5.6 km/h 5.6 km/h 88 % 0 mm 0.0 W/m2 CLR
18:32 1.7 °C -0.1 °C 1015.8 hPa Calm     88 % 0 mm 0.0 W/m2 CLR
18:40 1.7 °C -0.3 °C 1016.1 hPa Calm     87 % 0 mm 0.0 W/m2 CLR
18:44 1.7 °C -0.1 °C 1016.1 hPa Calm     88 % 0 mm 0.0 W/m2 CLR
18:46 1.7 °C -0.1 °C 1016.1 hPa Calm     88 % 0 mm 0.0 W/m2 CLR
18:49 1.7 °C -0.1 °C 1016.1 hPa Calm     88 % 0 mm 0.0 W/m2 CLR
18:53 1.7 °C -0.1 °C 1016.1 hPa Calm     88 % 0 mm 0.0 W/m2 CLR
18:58 1.7 °C 0.1 °C 1016.1 hPa WNW 5.6 km/h 5.6 km/h 89 % 0 mm 0.0 W/m2 CLR
18:59 1.7 °C 0.1 °C 1016.1 hPa WNW 5.6 km/h 5.6 km/h 89 % 0 mm 0.0 W/m2 CLR
19:01 1.1 °C -0.5 °C 1016.1 hPa Calm     89 % 0 mm 0.0 W/m2 CLR
19:07 1.1 °C -0.5 °C 1016.1 hPa Calm     89 % 0 mm 0.0 W/m2 CLR
19:09 1.1 °C -0.5 °C 1016.5 hPa Calm     89 % 0 mm 0.0 W/m2 CLR
19:11 1.1 °C -0.5 °C 1016.5 hPa Calm     89 % 0 mm 0.0 W/m2 CLR
19:15 1.1 °C -0.5 °C 1016.5 hPa Calm     89 % 0 mm 0.0 W/m2 CLR
19:20 1.1 °C -0.3 °C 1016.5 hPa Calm     90 % 0 mm 0.0 W/m2 CLR
19:24 1.1 °C -0.3 °C 1016.5 hPa Calm     90 % 0 mm 0.0 W/m2 CLR
19:29 1.1 °C -0.3 °C 1016.5 hPa Calm     90 % 0 mm 0.0 W/m2 CLR
19:34 0.6 °C -0.9 °C 1016.5 hPa Calm     90 % 0 mm 0.0 W/m2 CLR
19:36 0.6 °C -0.9 °C 1016.5 hPa Calm     90 % 0 mm 0.0 W/m2 CLR
19:41 0.6 °C -0.7 °C 1016.5 hPa Calm     91 % 0 mm 0.0 W/m2 CLR
19:44 0 °C -1.3 °C 1016.8 hPa Calm     91 % 0 mm 0.0 W/m2 CLR
19:48 0 °C -1.3 °C 1016.8 hPa Calm     91 % 0 mm 0.0 W/m2 CLR
19:50 0 °C -1.3 °C 1016.8 hPa Calm     91 % 0 mm 0.0 W/m2 CLR
19:55 0 °C -1.3 °C 1016.8 hPa Calm     91 % 0 mm 0.0 W/m2 CLR
19:58 0 °C -1.3 °C 1016.8 hPa Calm     91 % 0 mm 0.0 W/m2 CLR
20:03 0 °C -1.3 °C 1016.8 hPa Calm     91 % 0 mm 0.0 W/m2 CLR
20:08 0 °C -1.3 °C 1016.8 hPa Calm     91 % 0 mm 0.0 W/m2 CLR
20:12 -0.6 °C -1.8 °C 1016.8 hPa Calm     91 % 0 mm 0.0 W/m2 CLR
20:17 -0.6 °C -1.8 °C 1016.8 hPa Calm     91 % 0 mm 0.0 W/m2 CLR
20:22 -0.6 °C -1.7 °C 1016.8 hPa Calm     92 % 0 mm 0.0 W/m2 CLR
20:24 -0.6 °C -1.7 °C 1016.8 hPa Calm     92 % 0 mm 0.0 W/m2 CLR
20:29 -0.6 °C -1.7 °C 1016.8 hPa Calm     92 % 0 mm 0.0 W/m2 CLR
20:30 -0.6 °C -1.7 °C 1016.8 hPa Calm     92 % 0 mm 0.0 W/m2 CLR
20:35 -0.6 °C -1.8 °C 1016.8 hPa Calm     91 % 0 mm 0.0 W/m2 CLR
20:37 -0.6 °C -1.7 °C 1016.8 hPa Calm     92 % 0 mm 0.0 W/m2 CLR
20:42 -0.6 °C -1.7 °C 1016.8 hPa Calm     92 % 0 mm 0.0 W/m2 CLR
20:47 -0.6 °C -1.7 °C 1016.8 hPa Calm     92 % 0 mm 0.0 W/m2 CLR
20:48 -0.6 °C -1.7 °C 1016.8 hPa Calm     92 % 0 mm 0.0 W/m2 CLR
20:53 0 °C -1.2 °C 1016.8 hPa Calm     92 % 0 mm 0.0 W/m2 CLR
20:58 0 °C -1.2 °C 1016.8 hPa Calm     92 % 0 mm 0.0 W/m2 CLR
21:03 0 °C -1.2 °C 1017.2 hPa Calm     92 % 0 mm 0.0 W/m2 CLR
21:09 0 °C -1.2 °C 1017.2 hPa Calm     92 % 0 mm 0.0 W/m2 CLR
21:19 0 °C -1.2 °C 1017.2 hPa Calm     92 % 0 mm 0.0 W/m2 CLR
21:24 -0.6 °C -1.7 °C 1017.2 hPa Calm     92 % 0 mm 0.0 W/m2 CLR
21:31 -0.6 °C -1.7 °C 1017.2 hPa Calm     92 % 0 mm 0.0 W/m2 CLR
21:36 -0.6 °C -1.7 °C 1017.5 hPa Calm     92 % 0 mm 0.0 W/m2 CLR
21:51 -0.6 °C -1.7 °C 1017.5 hPa Calm     92 % 0 mm 0.0 W/m2 CLR
22:06 -0.6 °C -1.6 °C 1017.5 hPa West 3.7 km/h 3.7 km/h 93 % 0 mm 0.0 W/m2 CLR
22:14 -1.1 °C -2.1 °C 1017.5 hPa Calm     93 % 0 mm 0.0 W/m2 CLR
22:20 -1.1 °C -2.1 °C 1017.5 hPa Calm     93 % 0 mm 0.0 W/m2 CLR
22:28 -1.1 °C -2.1 °C 1017.5 hPa Calm     93 % 0 mm 0.0 W/m2 CLR
22:31 -1.1 °C -2.1 °C 1017.5 hPa Calm     93 % 0 mm 0.0 W/m2 CLR
22:36 -1.1 °C -2.1 °C 1017.5 hPa Calm     93 % 0 mm 0.0 W/m2 CLR
22:41 -1.1 °C -2.1 °C 1017.5 hPa West 8 km/h 8 km/h 93 % 0 mm 0.0 W/m2 CLR
22:47 -1.1 °C -2.1 °C 1017.5 hPa WSW 1.9 km/h   93 % 0 mm 0.0 W/m2 CLR
22:53 -1.1 °C -2.1 °C 1017.5 hPa Calm     93 % 0 mm 0.0 W/m2 CLR
22:55 -1.1 °C -2.1 °C 1017.5 hPa Calm     93 % 0 mm 0.0 W/m2 CLR
23:01 -1.1 °C -2.1 °C 1017.8 hPa Calm     93 % 0 mm 0.0 W/m2 CLR
23:07 -1.1 °C -2.1 °C 1017.8 hPa Calm     93 % 0 mm 0.0 W/m2 CLR
23:13 -1.1 °C -2.1 °C 1017.8 hPa Calm     93 % 0 mm 0.0 W/m2 CLR
23:18 -1.1 °C -2.1 °C 1017.8 hPa Calm     93 % 0 mm 0.0 W/m2 CLR
23:21 -1.1 °C -2.1 °C 1017.8 hPa Calm     93 % 0 mm 0.0 W/m2 CLR
23:23 -1.1 °C -2.1 °C 1017.8 hPa Calm     93 % 0 mm 0.0 W/m2 CLR
23:33 -1.1 °C -2.1 °C 1017.8 hPa Calm     93 % 0 mm 0.0 W/m2 CLR
23:38 -1.1 °C -2.1 °C 1017.8 hPa Calm     93 % 0 mm 0.0 W/m2 CLR
23:44 -0.6 °C -1.6 °C 1018.2 hPa Calm     93 % 0 mm 0.0 W/m2 CLR
23:46 0 °C -1 °C 1018.2 hPa Calm     93 % 0 mm 0.0 W/m2 CLR
23:51 -0.6 °C -1.6 °C 1018.2 hPa Calm     93 % 0 mm 0.0 W/m2 CLR
23:53 -0.6 °C -1.6 °C 1018.2 hPa Calm     93 % 0 mm 0.0 W/m2 CLR
23:54 -0.6 °C -1.6 °C 1018.2 hPa Calm     93 % 0 mm 0.0 W/m2 CLR
23:55 -0.6 °C -1.6 °C 1018.2 hPa Calm     93 % 0 mm 0.0 W/m2 CLR
23:56 -0.6 °C -1.6 °C 1018.2 hPa Calm     93 % 0 mm 0.0 W/m2 CLR
23:58 -0.6 °C -1.6 °C 1018.2 hPa Calm     93 % 0 mm 0.0 W/m2 CLR
23:59 -0.6 °C -1.6 °C 1018.2 hPa Calm     93 % 0 mm 0.0 W/m2 CLR
Lo Temps de Massalio
Compliments of Weather Underground - 1 mb